PWSweather.com
Personal Weather Stations
Station Observations

SkegnessGB

Lat: 53.147585, Lon: 0.345774

Elevation: 18

Station Type: Fine Offset WH3080

http://www.skegnessweather.info/

High Low Average
Temperature 41.2°F5.1°C 34.9°F1.6°C 37.3°F2.9°C
Dew Point 38.5°F3.6°C 32.3°F0.2°C 35.2°F1.8°C
Winds 30.0 mph 48.3 kmh 4.8 mph 7.7 kmh 18.0 mph S29.0 kmh S
Wind Gusts 33.5 mph53.9 kmh 4.9 mph7.9 kmh 19.0 mph30.6 kmh
Humidity 100% 72% 92%
Pressure 29.70 in1005.8 mb 29.44 in997.0 mb -
Precipitation 0.09 in2.3 mm - -
Hour Temp Dew Point Humidity Winds Wind Gusts Pressure Precip Precip Rate Daily Precip Total
12:00 AM 34.9°F1.6°C 34.1°F1.2°C 97% 10.3 mph S16.6 kmh S 10.1 mph16.3 kmh 29.68 in1005.1 mb 0.01 in0.3 mm 0.00 in0.0 mm 0.01 in0.3 mm
12:10 AM 34.9°F1.6°C 34.1°F1.2°C 97% 8.9 mph S14.3 kmh S 8.4 mph13.5 kmh 29.68 in1005.1 mb 0.00 in0.0 mm 0.00 in0.0 mm 0.01 in0.3 mm
12:20 AM 34.9°F1.6°C 34.1°F1.2°C 97% 8.2 mph S13.2 kmh S 12.5 mph20.1 kmh 29.67 in1004.7 mb 0.00 in0.0 mm 0.00 in0.0 mm 0.01 in0.3 mm
12:30 AM 34.9°F1.6°C 34.1°F1.2°C 97% 10.2 mph S16.4 kmh S 11.8 mph19.0 kmh 29.67 in1004.7 mb 0.00 in0.0 mm 0.00 in0.0 mm 0.01 in0.3 mm
12:40 AM 34.9°F1.6°C 34.1°F1.2°C 97% 9.4 mph S15.1 kmh S 10.8 mph17.4 kmh 29.68 in1005.1 mb 0.00 in0.0 mm 0.00 in0.0 mm 0.01 in0.3 mm
12:50 AM 34.9°F1.6°C 34.1°F1.2°C 97% 9.9 mph S15.9 kmh S 10.1 mph16.3 kmh 29.68 in1005.1 mb 0.00 in0.0 mm 0.00 in0.0 mm 0.01 in0.3 mm
01:00 AM 34.9°F1.6°C 34.1°F1.2°C 97% 8.8 mph SSE14.2 kmh SSE 9.1 mph14.6 kmh 29.68 in1005.1 mb 0.00 in0.0 mm 0.00 in0.0 mm 0.01 in0.3 mm
01:10 AM 34.9°F1.6°C 34.1°F1.2°C 97% 10.1 mph SE16.3 kmh SE 8.4 mph13.5 kmh 29.68 in1005.1 mb 0.00 in0.0 mm 0.00 in0.0 mm 0.01 in0.3 mm
01:20 AM 34.9°F1.6°C 33.9°F1.1°C 96% 9.5 mph S15.3 kmh S 10.8 mph17.4 kmh 29.68 in1005.1 mb 0.00 in0.0 mm 0.00 in0.0 mm 0.01 in0.3 mm
01:30 AM 34.9°F1.6°C 33.9°F1.1°C 96% 9.0 mph S14.5 kmh S 10.8 mph17.4 kmh 29.68 in1005.1 mb 0.00 in0.0 mm 0.00 in0.0 mm 0.01 in0.3 mm
01:40 AM 34.9°F1.6°C 33.9°F1.1°C 96% 7.5 mph S12.1 kmh S 9.1 mph14.6 kmh 29.69 in1005.4 mb 0.00 in0.0 mm 0.00 in0.0 mm 0.01 in0.3 mm
01:50 AM 34.9°F1.6°C 33.9°F1.1°C 96% 8.4 mph SSE13.5 kmh SSE 8.4 mph13.5 kmh 29.69 in1005.4 mb 0.00 in0.0 mm 0.00 in0.0 mm 0.01 in0.3 mm
02:00 AM 34.9°F1.6°C 33.9°F1.1°C 96% 7.7 mph S12.4 kmh S 7.6 mph12.2 kmh 29.69 in1005.4 mb 0.00 in0.0 mm 0.00 in0.0 mm 0.01 in0.3 mm
02:10 AM 34.9°F1.6°C 33.9°F1.1°C 96% 8.1 mph SSE13.0 kmh SSE 9.1 mph14.6 kmh 29.70 in1005.8 mb 0.00 in0.0 mm 0.00 in0.0 mm 0.01 in0.3 mm
02:20 AM 34.9°F1.6°C 33.9°F1.1°C 96% 7.0 mph S11.3 kmh S 9.1 mph14.6 kmh 29.70 in1005.8 mb 0.00 in0.0 mm 0.00 in0.0 mm 0.01 in0.3 mm
02:30 AM 34.9°F1.6°C 33.9°F1.1°C 96% 6.5 mph SSW10.5 kmh SSW 6.6 mph10.6 kmh 29.70 in1005.8 mb 0.00 in0.0 mm 0.00 in0.0 mm 0.01 in0.3 mm
02:40 AM 34.9°F1.6°C 33.9°F1.1°C 96% 8.5 mph S13.7 kmh S 10.1 mph16.3 kmh 29.70 in1005.8 mb 0.00 in0.0 mm 0.00 in0.0 mm 0.01 in0.3 mm
02:50 AM 34.9°F1.6°C 33.9°F1.1°C 96% 7.3 mph S11.7 kmh S 7.6 mph12.2 kmh 29.70 in1005.8 mb 0.00 in0.0 mm 0.00 in0.0 mm 0.01 in0.3 mm
03:00 AM 34.9°F1.6°C 33.9°F1.1°C 96% 5.4 mph S8.7 kmh S 7.6 mph12.2 kmh 29.70 in1005.8 mb 0.00 in0.0 mm 0.00 in0.0 mm 0.01 in0.3 mm
03:10 AM 34.9°F1.6°C 33.9°F1.1°C 96% 4.8 mph SE7.7 kmh SE 5.9 mph9.5 kmh 29.69 in1005.4 mb 0.00 in0.0 mm 0.00 in0.0 mm 0.01 in0.3 mm
03:20 AM 34.9°F1.6°C 33.9°F1.1°C 96% 6.6 mph SSE10.6 kmh SSE 6.6 mph10.6 kmh 29.69 in1005.4 mb 0.00 in0.0 mm 0.00 in0.0 mm 0.01 in0.3 mm
03:30 AM 34.9°F1.6°C 33.9°F1.1°C 96% 7.5 mph SSE12.1 kmh SSE 7.6 mph12.2 kmh 29.68 in1005.1 mb 0.00 in0.0 mm 0.00 in0.0 mm 0.01 in0.3 mm
03:40 AM 34.9°F1.6°C 33.9°F1.1°C 96% 6.9 mph S11.1 kmh S 6.6 mph10.6 kmh 29.68 in1005.1 mb 0.00 in0.0 mm 0.00 in0.0 mm 0.01 in0.3 mm
03:50 AM 34.9°F1.6°C 34.1°F1.2°C 97% 5.7 mph S9.2 kmh S 7.6 mph12.2 kmh 29.68 in1005.1 mb 0.00 in0.0 mm 0.00 in0.0 mm 0.01 in0.3 mm
04:00 AM 34.9°F1.6°C 34.1°F1.2°C 97% 7.3 mph S11.7 kmh S 9.1 mph14.6 kmh 29.68 in1005.1 mb 0.00 in0.0 mm 0.00 in0.0 mm 0.01 in0.3 mm
04:10 AM 35.1°F1.7°C 34.3°F1.3°C 97% 7.6 mph S12.2 kmh S 9.1 mph14.6 kmh 29.68 in1005.1 mb 0.00 in0.0 mm 0.00 in0.0 mm 0.01 in0.3 mm
04:20 AM 35.1°F1.7°C 34.3°F1.3°C 97% 9.1 mph SSE14.6 kmh SSE 9.1 mph14.6 kmh 29.67 in1004.7 mb 0.00 in0.0 mm 0.00 in0.0 mm 0.01 in0.3 mm
04:30 AM 35.1°F1.7°C 34.3°F1.3°C 97% 9.3 mph S15.0 kmh S 9.1 mph14.6 kmh 29.67 in1004.7 mb 0.00 in0.0 mm 0.00 in0.0 mm 0.01 in0.3 mm
04:40 AM 35.1°F1.7°C 34.3°F1.3°C 97% 8.4 mph SE13.5 kmh SE 8.4 mph13.5 kmh 29.66 in1004.4 mb 0.00 in0.0 mm 0.00 in0.0 mm 0.01 in0.3 mm
04:50 AM 35.2°F1.8°C 34.5°F1.4°C 97% 8.5 mph SE13.7 kmh SE 10.1 mph16.3 kmh 29.67 in1004.7 mb 0.00 in0.0 mm 0.00 in0.0 mm 0.01 in0.3 mm
05:00 AM 35.2°F1.8°C 34.5°F1.4°C 97% 9.6 mph SSE15.4 kmh SSE 14.3 mph23.0 kmh 29.66 in1004.4 mb 0.00 in0.0 mm 0.00 in0.0 mm 0.01 in0.3 mm
05:10 AM 35.2°F1.8°C 34.5°F1.4°C 97% 5.9 mph ESE9.5 kmh ESE 4.9 mph7.9 kmh 29.66 in1004.4 mb 0.00 in0.0 mm 0.00 in0.0 mm 0.01 in0.3 mm
05:20 AM 35.2°F1.8°C 34.5°F1.4°C 97% 10.8 mph SSE17.4 kmh SSE 10.8 mph17.4 kmh 29.66 in1004.4 mb 0.00 in0.0 mm 0.00 in0.0 mm 0.01 in0.3 mm
05:30 AM 35.2°F1.8°C 34.5°F1.4°C 97% 11.6 mph S18.7 kmh S 10.8 mph17.4 kmh 29.66 in1004.4 mb 0.00 in0.0 mm 0.00 in0.0 mm 0.01 in0.3 mm
05:40 AM 35.2°F1.8°C 34.5°F1.4°C 97% 11.3 mph SSE18.2 kmh SSE 13.3 mph21.4 kmh 29.66 in1004.4 mb 0.00 in0.0 mm 0.00 in0.0 mm 0.01 in0.3 mm
05:50 AM 35.2°F1.8°C 34.5°F1.4°C 97% 11.3 mph S18.2 kmh S 12.5 mph20.1 kmh 29.66 in1004.4 mb 0.00 in0.0 mm 0.00 in0.0 mm 0.01 in0.3 mm
06:00 AM 35.4°F1.9°C 34.9°F1.6°C 98% 13.0 mph SSE20.9 kmh SSE 15.0 mph24.1 kmh 29.66 in1004.4 mb 0.00 in0.0 mm 0.00 in0.0 mm 0.01 in0.3 mm
06:10 AM 35.4°F1.9°C 34.7°F1.5°C 97% 16.2 mph SW26.1 kmh SW 15.0 mph24.1 kmh 29.66 in1004.4 mb 0.00 in0.0 mm 0.00 in0.0 mm 0.01 in0.3 mm
06:20 AM 35.4°F1.9°C 34.7°F1.5°C 97% 10.7 mph S17.2 kmh S 15.0 mph24.1 kmh 29.66 in1004.4 mb 0.00 in0.0 mm 0.00 in0.0 mm 0.01 in0.3 mm
06:30 AM 35.6°F2.0°C 35.1°F1.7°C 98% 13.5 mph S21.7 kmh S 16.7 mph26.9 kmh 29.66 in1004.4 mb 0.00 in0.0 mm 0.00 in0.0 mm 0.01 in0.3 mm
06:40 AM 35.6°F2.0°C 35.1°F1.7°C 98% 12.6 mph S20.3 kmh S 12.5 mph20.1 kmh 29.66 in1004.4 mb 0.00 in0.0 mm 0.00 in0.0 mm 0.01 in0.3 mm
06:50 AM 35.6°F2.0°C 35.1°F1.7°C 98% 13.1 mph S21.1 kmh S 17.5 mph28.2 kmh 29.65 in1004.1 mb 0.00 in0.0 mm 0.00 in0.0 mm 0.01 in0.3 mm
07:00 AM 35.8°F2.1°C 35.0°F1.7°C 97% 11.9 mph S19.2 kmh S 18.5 mph29.8 kmh 29.66 in1004.4 mb 0.00 in0.0 mm 0.00 in0.0 mm 0.01 in0.3 mm
07:10 AM 35.8°F2.1°C 35.0°F1.7°C 97% 10.6 mph SE17.1 kmh SE 13.3 mph21.4 kmh 29.65 in1004.1 mb 0.00 in0.0 mm 0.00 in0.0 mm 0.01 in0.3 mm
07:20 AM 35.8°F2.1°C 35.0°F1.7°C 97% 12.5 mph S20.1 kmh S 16.0 mph25.7 kmh 29.65 in1004.1 mb 0.00 in0.0 mm 0.00 in0.0 mm 0.01 in0.3 mm
07:30 AM 36.0°F2.2°C 35.2°F1.8°C 97% 11.1 mph S17.9 kmh S 14.3 mph23.0 kmh 29.65 in1004.1 mb 0.00 in0.0 mm 0.00 in0.0 mm 0.01 in0.3 mm
07:40 AM 36.0°F2.2°C 35.2°F1.8°C 97% 12.1 mph S19.5 kmh S 14.3 mph23.0 kmh 29.66 in1004.4 mb 0.00 in0.0 mm 0.00 in0.0 mm 0.01 in0.3 mm
07:50 AM 36.0°F2.2°C 35.2°F1.8°C 97% 14.1 mph S22.7 kmh S 14.3 mph23.0 kmh 29.67 in1004.7 mb 0.00 in0.0 mm 0.00 in0.0 mm 0.01 in0.3 mm
08:00 AM 36.1°F2.3°C 35.4°F1.9°C 97% 14.7 mph S23.7 kmh S 16.0 mph25.7 kmh 29.66 in1004.4 mb 0.00 in0.0 mm 0.00 in0.0 mm 0.01 in0.3 mm
08:10 AM 36.1°F2.3°C 35.1°F1.7°C 96% 13.9 mph SSE22.4 kmh SSE 14.3 mph23.0 kmh 29.66 in1004.4 mb 0.00 in0.0 mm 0.00 in0.0 mm 0.01 in0.3 mm
08:20 AM 36.3°F2.4°C 35.3°F1.8°C 96% 15.3 mph S24.6 kmh S 15.0 mph24.1 kmh 29.65 in1004.1 mb 0.00 in0.0 mm 0.00 in0.0 mm 0.01 in0.3 mm
08:30 AM 36.5°F2.5°C 35.5°F1.9°C 96% 14.5 mph S23.3 kmh S 15.0 mph24.1 kmh 29.65 in1004.1 mb 0.00 in0.0 mm 0.00 in0.0 mm 0.01 in0.3 mm
08:40 AM 36.5°F2.5°C 35.5°F1.9°C 96% 14.6 mph SSE23.5 kmh SSE 18.5 mph29.8 kmh 29.65 in1004.1 mb 0.00 in0.0 mm 0.00 in0.0 mm 0.01 in0.3 mm
08:50 AM 36.5°F2.5°C 35.5°F1.9°C 96% 19.1 mph S30.7 kmh S 25.1 mph40.4 kmh 29.65 in1004.1 mb 0.00 in0.0 mm 0.00 in0.0 mm 0.01 in0.3 mm
09:00 AM 36.5°F2.5°C 35.2°F1.8°C 95% 15.9 mph SSE25.6 kmh SSE 19.2 mph30.9 kmh 29.65 in1004.1 mb 0.00 in0.0 mm 0.00 in0.0 mm 0.01 in0.3 mm
09:10 AM 36.7°F2.6°C 35.1°F1.7°C 94% 16.8 mph S27.0 kmh S 15.0 mph24.1 kmh 29.64 in1003.7 mb 0.00 in0.0 mm 0.00 in0.0 mm 0.01 in0.3 mm
09:20 AM 36.7°F2.6°C 34.8°F1.6°C 93% 18.4 mph SSE29.6 kmh SSE 20.9 mph33.6 kmh 29.64 in1003.7 mb 0.00 in0.0 mm 0.00 in0.0 mm 0.01 in0.3 mm
09:30 AM 36.9°F2.7°C 35.0°F1.7°C 93% 20.3 mph S32.7 kmh S 19.2 mph30.9 kmh 29.64 in1003.7 mb 0.00 in0.0 mm 0.00 in0.0 mm 0.01 in0.3 mm
09:40 AM 37.0°F2.8°C 35.2°F1.8°C 93% 16.5 mph S26.6 kmh S 16.0 mph25.7 kmh 29.65 in1004.1 mb 0.00 in0.0 mm 0.00 in0.0 mm 0.01 in0.3 mm
09:50 AM 37.6°F3.1°C 35.7°F2.1°C 93% 18.0 mph SE29.0 kmh SE 19.2 mph30.9 kmh 29.65 in1004.1 mb 0.00 in0.0 mm 0.00 in0.0 mm 0.01 in0.3 mm
10:00 AM 37.9°F3.3°C 36.1°F2.3°C 93% 17.2 mph SSE27.7 kmh SSE 18.5 mph29.8 kmh 29.64 in1003.7 mb 0.00 in0.0 mm 0.00 in0.0 mm 0.01 in0.3 mm
10:10 AM 38.3°F3.5°C 36.2°F2.3°C 92% 17.0 mph S27.4 kmh S 17.5 mph28.2 kmh 29.63 in1003.4 mb 0.00 in0.0 mm 0.00 in0.0 mm 0.01 in0.3 mm
10:20 AM 38.5°F3.6°C 35.8°F2.1°C 90% 20.7 mph S33.3 kmh S 20.9 mph33.6 kmh 29.63 in1003.4 mb 0.00 in0.0 mm 0.00 in0.0 mm 0.01 in0.3 mm
10:30 AM 38.7°F3.7°C 35.7°F2.1°C 89% 22.1 mph SE35.6 kmh SE 19.2 mph30.9 kmh 29.62 in1003.0 mb 0.00 in0.0 mm 0.00 in0.0 mm 0.01 in0.3 mm
10:40 AM 39.9°F4.4°C 35.8°F2.1°C 85% 18.9 mph S30.4 kmh S 20.2 mph32.5 kmh 29.62 in1003.0 mb 0.00 in0.0 mm 0.00 in0.0 mm 0.01 in0.3 mm
10:50 AM 39.7°F4.3°C 35.6°F2.0°C 85% 20.9 mph S33.6 kmh S 21.7 mph34.9 kmh 29.62 in1003.0 mb 0.00 in0.0 mm 0.00 in0.0 mm 0.01 in0.3 mm
11:00 AM 38.8°F3.8°C 35.0°F1.7°C 86% 21.0 mph S33.8 kmh S 21.7 mph34.9 kmh 29.61 in1002.7 mb 0.00 in0.0 mm 0.00 in0.0 mm 0.01 in0.3 mm
11:10 AM 38.8°F3.8°C 35.3°F1.8°C 87% 22.5 mph SW36.2 kmh SW 20.9 mph33.6 kmh 29.62 in1003.0 mb 0.00 in0.0 mm 0.00 in0.0 mm 0.01 in0.3 mm
11:20 AM 38.7°F3.7°C 34.8°F1.6°C 86% 21.2 mph S34.1 kmh S 21.7 mph34.9 kmh 29.61 in1002.7 mb 0.00 in0.0 mm 0.00 in0.0 mm 0.01 in0.3 mm
11:30 AM 39.0°F3.9°C 34.9°F1.6°C 85% 18.7 mph S30.1 kmh S 17.5 mph28.2 kmh 29.62 in1003.0 mb 0.00 in0.0 mm 0.00 in0.0 mm 0.01 in0.3 mm
11:40 AM 39.4°F4.1°C 34.9°F1.6°C 84% 19.7 mph SSE31.7 kmh SSE 18.5 mph29.8 kmh 29.60 in1002.4 mb 0.00 in0.0 mm 0.00 in0.0 mm 0.01 in0.3 mm
11:50 AM 39.7°F4.3°C 34.4°F1.3°C 81% 23.1 mph S37.2 kmh S 24.4 mph39.3 kmh 29.59 in1002.0 mb 0.00 in0.0 mm 0.00 in0.0 mm 0.01 in0.3 mm
12:00 PM 39.9°F4.4°C 33.6°F0.9°C 78% 21.7 mph S34.9 kmh S 21.7 mph34.9 kmh 29.59 in1002.0 mb 0.00 in0.0 mm 0.00 in0.0 mm 0.01 in0.3 mm
12:10 PM 39.9°F4.4°C 33.6°F0.9°C 78% 21.0 mph S33.8 kmh S 21.7 mph34.9 kmh 29.59 in1002.0 mb 0.00 in0.0 mm 0.00 in0.0 mm 0.01 in0.3 mm
12:20 PM 39.7°F4.3°C 34.1°F1.2°C 80% 19.8 mph S31.9 kmh S 21.7 mph34.9 kmh 29.59 in1002.0 mb 0.00 in0.0 mm 0.00 in0.0 mm 0.01 in0.3 mm
12:30 PM 39.7°F4.3°C 34.7°F1.5°C 82% 19.3 mph S31.1 kmh S 17.5 mph28.2 kmh 29.59 in1002.0 mb 0.00 in0.0 mm 0.00 in0.0 mm 0.01 in0.3 mm
12:40 PM 39.9°F4.4°C 34.9°F1.6°C 82% 22.4 mph SSE36.0 kmh SSE 23.4 mph37.7 kmh 29.58 in1001.7 mb 0.00 in0.0 mm 0.00 in0.0 mm 0.01 in0.3 mm
12:50 PM 39.9°F4.4°C 34.9°F1.6°C 82% 21.8 mph S35.1 kmh S 25.1 mph40.4 kmh 29.58 in1001.7 mb 0.00 in0.0 mm 0.00 in0.0 mm 0.01 in0.3 mm
01:00 PM 39.9°F4.4°C 34.9°F1.6°C 82% 19.5 mph S31.4 kmh S 20.9 mph33.6 kmh 29.57 in1001.4 mb 0.00 in0.0 mm 0.00 in0.0 mm 0.01 in0.3 mm
01:10 PM 40.1°F4.5°C 35.0°F1.7°C 82% 20.3 mph S32.7 kmh S 18.5 mph29.8 kmh 29.57 in1001.4 mb 0.00 in0.0 mm 0.00 in0.0 mm 0.01 in0.3 mm
01:20 PM 40.3°F4.6°C 35.2°F1.8°C 82% 20.3 mph S32.7 kmh S 19.2 mph30.9 kmh 29.57 in1001.4 mb 0.00 in0.0 mm 0.00 in0.0 mm 0.01 in0.3 mm
01:30 PM 40.6°F4.8°C 35.3°F1.8°C 81% 22.3 mph S35.9 kmh S 22.6 mph36.4 kmh 29.55 in1000.7 mb 0.00 in0.0 mm 0.00 in0.0 mm 0.01 in0.3 mm
01:40 PM 41.0°F5.0°C 33.3°F0.7°C 74% 25.1 mph S40.4 kmh S 26.8 mph43.1 kmh 29.56 in1001.0 mb 0.00 in0.0 mm 0.00 in0.0 mm 0.01 in0.3 mm
01:50 PM 41.2°F5.1°C 33.5°F0.8°C 74% 22.7 mph SSE36.5 kmh SSE 31.7 mph51.0 kmh 29.56 in1001.0 mb 0.00 in0.0 mm 0.00 in0.0 mm 0.01 in0.3 mm
02:00 PM 40.6°F4.8°C 33.0°F0.6°C 74% 26.8 mph S43.1 kmh S 26.8 mph43.1 kmh 29.56 in1001.0 mb 0.00 in0.0 mm 0.00 in0.0 mm 0.01 in0.3 mm
02:10 PM 40.3°F4.6°C 33.6°F0.9°C 77% 22.6 mph S36.4 kmh S 26.8 mph43.1 kmh 29.55 in1000.7 mb 0.00 in0.0 mm 0.00 in0.0 mm 0.01 in0.3 mm
02:20 PM 40.1°F4.5°C 32.5°F0.3°C 74% 26.1 mph S42.0 kmh S 25.8 mph41.5 kmh 29.55 in1000.7 mb 0.00 in0.0 mm 0.00 in0.0 mm 0.01 in0.3 mm
02:30 PM 40.3°F4.6°C 32.3°F0.2°C 73% 27.4 mph S44.1 kmh S 28.5 mph45.9 kmh 29.54 in1000.3 mb 0.00 in0.0 mm 0.00 in0.0 mm 0.01 in0.3 mm
02:40 PM 40.8°F4.9°C 32.5°F0.3°C 72% 25.9 mph SSE41.7 kmh SSE 24.4 mph39.3 kmh 29.55 in1000.7 mb 0.00 in0.0 mm 0.00 in0.0 mm 0.01 in0.3 mm
02:50 PM 40.8°F4.9°C 32.5°F0.3°C 72% 29.2 mph S47.0 kmh S 28.5 mph45.9 kmh 29.54 in1000.3 mb 0.00 in0.0 mm 0.00 in0.0 mm 0.01 in0.3 mm
03:00 PM 40.1°F4.5°C 33.1°F0.6°C 76% 27.7 mph S44.6 kmh S 31.0 mph49.9 kmh 29.54 in1000.3 mb 0.00 in0.0 mm 0.00 in0.0 mm 0.01 in0.3 mm
03:10 PM 39.6°F4.2°C 33.9°F1.1°C 80% 24.1 mph SE38.8 kmh SE 28.5 mph45.9 kmh 29.55 in1000.7 mb 0.00 in0.0 mm 0.00 in0.0 mm 0.01 in0.3 mm
03:20 PM 39.4°F4.1°C 34.3°F1.3°C 82% 25.1 mph S40.4 kmh S 26.8 mph43.1 kmh 29.54 in1000.3 mb 0.00 in0.0 mm 0.00 in0.0 mm 0.01 in0.3 mm
03:30 PM 39.2°F4.0°C 34.2°F1.2°C 82% 24.3 mph S39.1 kmh S 24.4 mph39.3 kmh 29.53 in1000.0 mb 0.00 in0.0 mm 0.00 in0.0 mm 0.01 in0.3 mm
03:40 PM 39.4°F4.1°C 34.0°F1.1°C 81% 24.8 mph SSE39.9 kmh SSE 25.8 mph41.5 kmh 29.54 in1000.3 mb 0.00 in0.0 mm 0.00 in0.0 mm 0.01 in0.3 mm
03:50 PM 39.2°F4.0°C 34.2°F1.2°C 82% 25.2 mph S40.6 kmh S 31.0 mph49.9 kmh 29.54 in1000.3 mb 0.00 in0.0 mm 0.00 in0.0 mm 0.01 in0.3 mm
04:00 PM 38.8°F3.8°C 34.1°F1.2°C 83% 28.1 mph SSE45.2 kmh SSE 31.0 mph49.9 kmh 29.54 in1000.3 mb 0.00 in0.0 mm 0.00 in0.0 mm 0.01 in0.3 mm
04:10 PM 38.3°F3.5°C 34.5°F1.4°C 86% 25.4 mph SSE40.9 kmh SSE 27.6 mph44.4 kmh 29.53 in1000.0 mb 0.00 in0.0 mm 0.00 in0.0 mm 0.01 in0.3 mm
04:20 PM 37.8°F3.2°C 34.8°F1.6°C 89% 24.3 mph S39.1 kmh S 25.8 mph41.5 kmh 29.52 in999.7 mb 0.01 in0.3 mm 0.06 in1.5 mm 0.01 in0.3 mm
04:30 PM 37.4°F3.0°C 35.3°F1.8°C 92% 30.0 mph SSE48.3 kmh SSE 28.5 mph45.9 kmh 29.53 in1000.0 mb 0.02 in0.5 mm 0.06 in1.5 mm 0.02 in0.5 mm
04:40 PM 37.2°F2.9°C 35.4°F1.9°C 93% 23.4 mph S37.7 kmh S 25.1 mph40.4 kmh 29.53 in1000.0 mb 0.02 in0.5 mm 0.00 in0.0 mm 0.02 in0.5 mm
04:50 PM 37.0°F2.8°C 35.2°F1.8°C 93% 22.8 mph SE36.7 kmh SE 25.1 mph40.4 kmh 29.53 in1000.0 mb 0.02 in0.5 mm 0.00 in0.0 mm 0.02 in0.5 mm
05:00 PM 37.2°F2.9°C 35.7°F2.1°C 94% 26.2 mph SSE42.2 kmh SSE 26.8 mph43.1 kmh 29.52 in999.7 mb 0.02 in0.5 mm 0.00 in0.0 mm 0.02 in0.5 mm
05:10 PM 37.2°F2.9°C 35.4°F1.9°C 93% 23.9 mph SE38.5 kmh SE 24.4 mph39.3 kmh 29.52 in999.7 mb 0.02 in0.5 mm 0.00 in0.0 mm 0.02 in0.5 mm
05:20 PM 37.2°F2.9°C 35.4°F1.9°C 93% 24.8 mph SSE39.9 kmh SSE 27.6 mph44.4 kmh 29.52 in999.7 mb 0.01 in0.3 mm 0.00 in0.0 mm 0.02 in0.5 mm
05:30 PM 37.0°F2.8°C 35.5°F1.9°C 94% 24.2 mph SSE38.9 kmh SSE 33.5 mph53.9 kmh 29.52 in999.7 mb 0.00 in0.0 mm 0.00 in0.0 mm 0.02 in0.5 mm
05:40 PM 36.9°F2.7°C 35.3°F1.8°C 94% 20.7 mph SSE33.3 kmh SSE 23.4 mph37.7 kmh 29.51 in999.3 mb 0.00 in0.0 mm 0.00 in0.0 mm 0.02 in0.5 mm
05:50 PM 36.9°F2.7°C 35.6°F2.0°C 95% 20.5 mph S33.0 kmh S 23.4 mph37.7 kmh 29.51 in999.3 mb 0.00 in0.0 mm 0.00 in0.0 mm 0.02 in0.5 mm
06:00 PM 37.0°F2.8°C 35.7°F2.1°C 95% 25.7 mph SSE41.4 kmh SSE 26.8 mph43.1 kmh 29.50 in999.0 mb 0.00 in0.0 mm 0.00 in0.0 mm 0.02 in0.5 mm
06:10 PM 37.0°F2.8°C 35.7°F2.1°C 95% 22.0 mph S35.4 kmh S 26.8 mph43.1 kmh 29.50 in999.0 mb 0.00 in0.0 mm 0.00 in0.0 mm 0.02 in0.5 mm
06:20 PM 37.0°F2.8°C 35.7°F2.1°C 95% 24.3 mph SE39.1 kmh SE 25.8 mph41.5 kmh 29.49 in998.6 mb 0.00 in0.0 mm 0.00 in0.0 mm 0.02 in0.5 mm
06:30 PM 37.2°F2.9°C 35.9°F2.2°C 95% 22.5 mph S36.2 kmh S 25.8 mph41.5 kmh 29.50 in999.0 mb 0.00 in0.0 mm 0.00 in0.0 mm 0.02 in0.5 mm
06:40 PM 37.6°F3.1°C 36.0°F2.2°C 94% 23.7 mph SSE38.1 kmh SSE 24.4 mph39.3 kmh 29.49 in998.6 mb 0.00 in0.0 mm 0.00 in0.0 mm 0.02 in0.5 mm
06:50 PM 37.8°F3.2°C 35.9°F2.2°C 93% 23.6 mph SSW38.0 kmh SSW 25.1 mph40.4 kmh 29.50 in999.0 mb 0.00 in0.0 mm 0.00 in0.0 mm 0.02 in0.5 mm
07:00 PM 37.8°F3.2°C 35.9°F2.2°C 93% 20.9 mph SSE33.6 kmh SSE 24.4 mph39.3 kmh 29.50 in999.0 mb 0.00 in0.0 mm 0.00 in0.0 mm 0.02 in0.5 mm
07:10 PM 37.8°F3.2°C 35.9°F2.2°C 93% 18.8 mph SSW30.3 kmh SSW 25.1 mph40.4 kmh 29.50 in999.0 mb 0.00 in0.0 mm 0.00 in0.0 mm 0.02 in0.5 mm
07:20 PM 37.6°F3.1°C 36.0°F2.2°C 94% 18.8 mph SSE30.3 kmh SSE 25.1 mph40.4 kmh 29.49 in998.6 mb 0.02 in0.5 mm 0.12 in3.0 mm 0.05 in1.3 mm
07:30 PM 37.4°F3.0°C 36.1°F2.3°C 95% 19.9 mph S32.0 kmh S 21.7 mph34.9 kmh 29.48 in998.3 mb 0.02 in0.5 mm 0.00 in0.0 mm 0.05 in1.3 mm
07:40 PM 37.2°F2.9°C 36.2°F2.3°C 96% 15.7 mph S25.3 kmh S 22.6 mph36.4 kmh 29.48 in998.3 mb 0.04 in1.0 mm 0.12 in3.0 mm 0.06 in1.5 mm
07:50 PM 37.4°F3.0°C 36.4°F2.4°C 96% 20.5 mph S33.0 kmh S 23.4 mph37.7 kmh 29.48 in998.3 mb 0.04 in1.0 mm 0.00 in0.0 mm 0.06 in1.5 mm
08:00 PM 37.4°F3.0°C 36.6°F2.6°C 97% 21.9 mph S35.2 kmh S 24.4 mph39.3 kmh 29.48 in998.3 mb 0.04 in1.0 mm 0.00 in0.0 mm 0.06 in1.5 mm
08:10 PM 37.4°F3.0°C 36.6°F2.6°C 97% 21.6 mph SSE34.8 kmh SSE 22.6 mph36.4 kmh 29.47 in998.0 mb 0.05 in1.3 mm 0.06 in1.5 mm 0.07 in1.8 mm
08:20 PM 37.4°F3.0°C 36.9°F2.7°C 98% 25.0 mph SSE40.2 kmh SSE 26.8 mph43.1 kmh 29.46 in997.6 mb 0.04 in1.0 mm 0.00 in0.0 mm 0.08 in2.0 mm
08:30 PM 37.4°F3.0°C 36.9°F2.7°C 98% 24.4 mph S39.3 kmh S 25.1 mph40.4 kmh 29.46 in997.6 mb 0.04 in1.0 mm 0.00 in0.0 mm 0.08 in2.0 mm
08:40 PM 37.4°F3.0°C 36.9°F2.7°C 98% 25.1 mph SSE40.4 kmh SSE 28.5 mph45.9 kmh 29.45 in997.3 mb 0.02 in0.5 mm 0.00 in0.0 mm 0.08 in2.0 mm
08:50 PM 37.4°F3.0°C 36.9°F2.7°C 98% 22.1 mph S35.6 kmh S 26.8 mph43.1 kmh 29.45 in997.3 mb 0.02 in0.5 mm 0.00 in0.0 mm 0.08 in2.0 mm
09:00 PM 37.6°F3.1°C 37.1°F2.8°C 98% 21.7 mph S34.9 kmh S 21.7 mph34.9 kmh 29.44 in997.0 mb 0.02 in0.5 mm 0.00 in0.0 mm 0.08 in2.0 mm
09:10 PM 37.6°F3.1°C 37.1°F2.8°C 98% 24.7 mph S39.8 kmh S 24.4 mph39.3 kmh 29.44 in997.0 mb 0.01 in0.3 mm 0.00 in0.0 mm 0.08 in2.0 mm
09:20 PM 37.6°F3.1°C 37.1°F2.8°C 98% 23.0 mph S37.0 kmh S 28.5 mph45.9 kmh 29.44 in997.0 mb 0.00 in0.0 mm 0.00 in0.0 mm 0.08 in2.0 mm
09:30 PM 37.8°F3.2°C 37.2°F2.9°C 98% 22.6 mph SE36.4 kmh SE 25.8 mph41.5 kmh 29.44 in997.0 mb 0.00 in0.0 mm 0.00 in0.0 mm 0.08 in2.0 mm
09:40 PM 37.8°F3.2°C 37.2°F2.9°C 98% 23.5 mph SSE37.8 kmh SSE 25.8 mph41.5 kmh 29.44 in997.0 mb 0.01 in0.3 mm 0.06 in1.5 mm 0.09 in2.3 mm
09:50 PM 37.9°F3.3°C 37.4°F3.0°C 98% 22.5 mph SSW36.2 kmh SSW 25.8 mph41.5 kmh 29.44 in997.0 mb 0.01 in0.3 mm 0.00 in0.0 mm 0.09 in2.3 mm
10:00 PM 38.1°F3.4°C 37.6°F3.1°C 98% 23.8 mph SSE38.3 kmh SSE 25.8 mph41.5 kmh 29.45 in997.3 mb 0.01 in0.3 mm 0.00 in0.0 mm 0.09 in2.3 mm
10:10 PM 38.1°F3.4°C 37.6°F3.1°C 98% 22.5 mph S36.2 kmh S 22.6 mph36.4 kmh 29.45 in997.3 mb 0.01 in0.3 mm 0.00 in0.0 mm 0.09 in2.3 mm
10:20 PM 38.3°F3.5°C 37.8°F3.2°C 98% 22.3 mph SE35.9 kmh SE 24.4 mph39.3 kmh 29.45 in997.3 mb 0.01 in0.3 mm 0.00 in0.0 mm 0.09 in2.3 mm
10:30 PM 38.3°F3.5°C 37.8°F3.2°C 98% 21.2 mph SSE34.1 kmh SSE 25.8 mph41.5 kmh 29.44 in997.0 mb 0.01 in0.3 mm 0.00 in0.0 mm 0.09 in2.3 mm
10:40 PM 38.3°F3.5°C 37.8°F3.2°C 98% 20.1 mph S32.3 kmh S 27.6 mph44.4 kmh 29.45 in997.3 mb 0.00 in0.0 mm 0.00 in0.0 mm 0.09 in2.3 mm
10:50 PM 38.3°F3.5°C 38.0°F3.3°C 99% 20.2 mph SSE32.5 kmh SSE 20.2 mph32.5 kmh 29.45 in997.3 mb 0.00 in0.0 mm 0.00 in0.0 mm 0.09 in2.3 mm
11:00 PM 38.3°F3.5°C 38.0°F3.3°C 99% 19.0 mph SSE30.6 kmh SSE 21.7 mph34.9 kmh 29.45 in997.3 mb 0.00 in0.0 mm 0.00 in0.0 mm 0.09 in2.3 mm
11:10 PM 38.3°F3.5°C 38.0°F3.3°C 99% 16.5 mph S26.6 kmh S 16.7 mph26.9 kmh 29.45 in997.3 mb 0.00 in0.0 mm 0.00 in0.0 mm 0.09 in2.3 mm
11:20 PM 38.3°F3.5°C 38.3°F3.5°C 100% 16.3 mph S26.2 kmh S 17.5 mph28.2 kmh 29.44 in997.0 mb 0.00 in0.0 mm 0.00 in0.0 mm 0.09 in2.3 mm
11:30 PM 38.5°F3.6°C 38.5°F3.6°C 100% 17.2 mph S27.7 kmh S 18.5 mph29.8 kmh 29.44 in997.0 mb 0.00 in0.0 mm 0.00 in0.0 mm 0.09 in2.3 mm
11:40 PM 38.5°F3.6°C 38.5°F3.6°C 100% 15.7 mph SSE25.3 kmh SSE 18.5 mph29.8 kmh 29.45 in997.3 mb 0.00 in0.0 mm 0.00 in0.0 mm 0.09 in2.3 mm
11:50 PM 38.5°F3.6°C 38.5°F3.6°C 100% 17.8 mph S28.6 kmh S 18.5 mph29.8 kmh 29.45 in997.3 mb 0.00 in0.0 mm 0.00 in0.0 mm 0.09 in2.3 mm